Time;durP1;ratioP1;P1;durP2;ratioP2;P2;SDS_P1;SDS_P2;PMS_P1;PMS_P2;Temp;Humidity;BMP_temperature;BMP_pressure;BME280_temperature;BME280_humidity;BME280_pressure;Samples;Min_cycle;Max_cycle;Signal;HPM_P1;HPM_P2
2022/07/21 00:00:45;;;;;;;699.35;650.42;;;20.90;99.90;;;;;;5072434;28;20131;-61
2022/07/21 00:03:11;;;;;;;659.00;614.08;;;20.90;99.90;;;;;;5052846;28;20057;-60
2022/07/21 00:05:36;;;;;;;690.72;644.03;;;20.90;99.90;;;;;;5072437;28;20040;-61
2022/07/21 00:08:03;;;;;;;662.13;618.38;;;21.00;99.90;;;;;;5072005;28;20072;-61
2022/07/21 00:10:29;;;;;;;653.92;608.90;;;21.10;99.90;;;;;;5071455;28;20080;-61
2022/07/21 00:12:55;;;;;;;701.78;653.00;;;21.20;99.90;;;;;;5087485;28;20508;-61
2022/07/21 00:15:24;;;;;;;669.28;622.35;;;21.30;99.90;;;;;;5076118;28;20040;-60
2022/07/21 00:17:50;;;;;;;580.80;544.58;;;21.30;99.90;;;;;;5056972;28;20056;-61
2022/07/21 00:20:18;;;;;;;679.97;633.28;;;21.30;99.90;;;;;;5066100;28;20123;-61
2022/07/21 00:22:44;;;;;;;568.33;532.50;;;21.20;99.90;;;;;;5096179;28;20129;-61
2022/07/21 00:25:12;;;;;;;579.28;541.55;;;21.20;99.90;;;;;;5076878;28;20142;-61
2022/07/21 00:27:38;;;;;;;520.50;485.70;;;21.00;99.90;;;;;;5096291;28;20486;-61
2022/07/21 00:30:06;;;;;;;642.38;594.72;;;20.80;99.90;;;;;;5095549;28;20044;-61
2022/07/21 00:32:32;;;;;;;575.47;535.65;;;20.70;99.90;;;;;;5088564;28;20131;-61
2022/07/21 00:34:58;;;;;;;574.92;536.85;;;20.60;99.90;;;;;;5075598;28;20454;-61
2022/07/21 00:37:25;;;;;;;644.17;597.10;;;;;;;;;;5060505;28;20048;-61
2022/07/21 00:39:51;;;;;;;629.88;586.83;;;20.40;99.90;;;;;;5095257;28;20056;-60
2022/07/21 00:42:23;;;;;;;520.67;487.25;;;20.30;99.90;;;;;;5077486;28;20048;-61
2022/07/21 00:44:49;;;;;;;610.80;569.00;;;20.30;99.90;;;;;;5094120;28;20075;-61
2022/07/21 00:47:18;;;;;;;567.05;529.75;;;20.30;99.90;;;;;;5075163;28;20055;-61
2022/07/21 00:49:44;;;;;;;483.67;453.55;;;20.40;99.90;;;;;;5075061;28;20053;-60
2022/07/21 00:52:10;;;;;;;476.05;446.05;;;20.50;99.90;;;;;;5074518;28;20044;-61
2022/07/21 00:54:36;;;;;;;404.92;382.02;;;20.50;99.90;;;;;;5056510;28;20494;-60
2022/07/21 00:57:02;;;;;;;447.55;419.45;;;20.60;99.90;;;;;;5095106;28;20059;-61
2022/07/21 00:59:29;;;;;;;399.33;374.52;;;20.70;99.90;;;;;;5094862;28;20452;-59
2022/07/21 01:01:55;;;;;;;430.30;402.83;;;20.70;99.90;;;;;;5095057;28;20044;-61
2022/07/21 01:04:21;;;;;;;363.55;339.10;;;20.40;99.90;;;;;;5087654;28;20367;-61
2022/07/21 01:06:47;;;;;;;370.00;348.48;;;19.90;99.90;;;;;;5056574;28;20044;-60
2022/07/21 01:09:14;;;;;;;429.05;403.90;;;19.40;99.90;;;;;;5074904;28;20055;-61
2022/07/21 01:11:40;;;;;;;401.75;378.15;;;19.30;99.90;;;;;;5074888;28;20127;-60
2022/07/21 01:14:06;;;;;;;393.65;371.33;;;19.20;99.90;;;;;;5088643;28;20068;-60
2022/07/21 01:16:32;;;;;;;426.02;400.42;;;19.20;99.90;;;;;;5095310;28;20036;-61
2022/07/21 01:18:58;;;;;;;429.27;402.95;;;19.30;99.90;;;;;;5094844;28;20040;-60
2022/07/21 01:21:36;;;;;;;469.27;439.65;;;19.20;99.90;;;;;;5093841;28;20048;-61
2022/07/21 01:24:03;;;;;;;429.83;404.00;;;19.20;99.90;;;;;;5095040;28;20474;-61
2022/07/21 01:26:29;;;;;;;447.02;419.42;;;19.30;99.90;;;;;;5082146;28;20060;-61
2022/07/21 01:28:57;;;;;;;439.33;412.48;;;19.30;99.90;;;;;;5073944;28;20041;-61
2022/07/21 01:31:23;;;;;;;462.30;432.92;;;19.30;99.90;;;;;;5085440;28;20389;-61
2022/07/21 01:33:50;;;;;;;501.75;469.02;;;19.30;99.90;;;;;;5076828;28;20040;-61
2022/07/21 01:36:16;;;;;;;533.10;498.10;;;19.20;99.90;;;;;;5074674;28;20051;-61
2022/07/21 01:41:33;;;;;;;504.77;472.60;;;19.20;99.90;;;;;;5093700;28;20043;-61
2022/07/21 01:44:04;;;;;;;453.55;425.73;;;19.20;99.90;;;;;;5088782;28;20044;-61
2022/07/21 01:46:33;;;;;;;442.85;415.10;;;19.10;99.90;;;;;;5088990;28;20043;-61
2022/07/21 01:48:58;;;;;;;390.45;367.20;;;19.00;99.90;;;;;;5082725;28;20044;-61
2022/07/21 01:51:24;;;;;;;391.52;368.35;;;19.00;99.90;;;;;;5074209;28;20048;-61
2022/07/21 01:53:51;;;;;;;416.95;391.90;;;19.10;99.90;;;;;;5073813;28;20091;-60
2022/07/21 01:56:21;;;;;;;500.17;466.40;;;19.10;99.90;;;;;;5073591;28;20048;-61
2022/07/21 01:58:47;;;;;;;499.48;465.77;;;19.10;99.90;;;;;;5073738;28;20044;-61
2022/07/21 02:01:16;;;;;;;536.85;500.88;;;19.10;99.90;;;;;;5073837;28;20459;-61
2022/07/21 02:03:43;;;;;;;476.48;445.10;;;19.20;99.90;;;;;;5073442;28;20052;-61
2022/07/21 02:06:09;;;;;;;473.25;441.90;;;19.20;99.90;;;;;;5079873;28;20101;-61
2022/07/21 02:08:36;;;;;;;395.30;372.42;;;19.10;99.90;;;;;;5084921;28;20072;-61
2022/07/21 02:11:02;;;;;;;400.73;377.38;;;19.20;99.90;;;;;;5055374;28;20049;-61
2022/07/21 02:13:28;;;;;;;456.10;427.40;;;19.10;99.90;;;;;;5055615;28;20067;-61
2022/07/21 02:15:53;;;;;;;412.35;387.88;;;19.00;99.90;;;;;;5078462;28;20096;-61
2022/07/21 02:18:20;;;;;;;450.02;422.48;;;19.00;99.90;;;;;;5055789;28;20044;-61
2022/07/21 02:20:47;;;;;;;494.00;462.67;;;19.00;99.90;;;;;;5073844;28;20048;-61
2022/07/21 02:23:14;;;;;;;476.83;445.77;;;18.90;99.90;;;;;;5073642;28;20134;-60
2022/07/21 02:25:40;;;;;;;440.38;412.42;;;18.90;99.90;;;;;;5093928;28;20051;-61
2022/07/21 02:28:05;;;;;;;440.60;414.77;;;18.90;99.90;;;;;;5093604;28;20401;-61
2022/07/21 02:30:31;;;;;;;436.85;410.67;;;18.90;99.90;;;;;;5092995;28;20098;-60
2022/07/21 02:32:57;;;;;;;425.30;400.40;;;18.90;99.90;;;;;;5083378;28;20045;-61
2022/07/21 02:35:23;;;;;;;523.90;489.67;;;18.80;99.90;;;;;;5073124;28;20048;-61
2022/07/21 02:37:48;;;;;;;512.42;479.35;;;18.70;99.90;;;;;;5054813;28;20055;-60
2022/07/21 02:40:14;;;;;;;544.15;508.23;;;18.60;99.90;;;;;;5073004;28;20372;-61
2022/07/21 02:42:40;;;;;;;522.80;488.45;;;18.60;99.90;;;;;;5072492;28;20372;-61
2022/07/21 02:45:08;;;;;;;560.67;521.80;;;18.50;99.90;;;;;;5072657;28;20044;-60
2022/07/21 02:47:54;;;;;;;468.92;439.73;;;18.50;99.90;;;;;;5073123;28;20049;-61
2022/07/21 02:50:21;;;;;;;502.42;470.42;;;18.60;99.90;;;;;;5054491;28;20052;-61
2022/07/21 02:52:47;;;;;;;482.10;451.55;;;18.70;99.90;;;;;;5072655;28;20074;-61
2022/07/21 02:55:13;;;;;;;506.20;473.83;;;18.70;99.90;;;;;;5072702;28;20045;-61
2022/07/21 02:57:39;;;;;;;450.33;422.73;;;18.80;99.90;;;;;;5073229;28;20109;-61
2022/07/21 03:00:06;;;;;;;356.15;335.88;;;18.80;99.90;;;;;;5072045;28;20053;-61
2022/07/21 03:02:32;;;;;;;428.35;401.83;;;18.80;99.90;;;;;;5072566;28;20041;-60
2022/07/21 03:04:58;;;;;;;414.67;389.55;;;18.80;99.90;;;;;;5072752;28;20375;-60
2022/07/21 03:07:24;;;;;;;398.30;374.50;;;18.80;99.90;;;;;;5072114;28;20052;-60
2022/07/21 03:09:50;;;;;;;456.95;429.25;;;18.80;99.90;;;;;;5072470;28;20049;-60
2022/07/21 03:12:15;;;;;;;450.73;421.45;;;18.80;99.90;;;;;;5072110;28;20047;-60
2022/07/21 03:14:41;;;;;;;379.80;356.67;;;18.90;99.90;;;;;;5072674;28;20438;-60
2022/07/21 03:17:07;;;;;;;407.83;382.70;;;18.80;99.90;;;;;;5071612;28;20044;-61
2022/07/21 03:19:33;;;;;;;377.52;354.95;;;18.90;99.90;;;;;;5071508;28;20041;-61
2022/07/21 03:21:58;;;;;;;452.33;424.25;;;18.90;99.90;;;;;;5071704;28;20048;-61
2022/07/21 03:24:24;;;;;;;428.92;402.20;;;18.90;99.90;;;;;;5072222;28;20099;-61
2022/07/21 03:26:50;;;;;;;428.42;402.38;;;18.90;99.90;;;;;;5071958;28;20045;-61
2022/07/21 03:29:16;;;;;;;435.02;407.67;;;18.90;99.90;;;;;;5072712;28;20049;-60
2022/07/21 03:31:42;;;;;;;424.75;399.25;;;18.80;99.90;;;;;;5072135;28;20445;-60
2022/07/21 03:34:07;;;;;;;471.27;442.88;;;18.90;99.90;;;;;;5071462;28;20086;-60
2022/07/21 03:36:33;;;;;;;434.73;407.80;;;18.90;99.90;;;;;;5072477;28;20040;-60
2022/07/21 03:38:59;;;;;;;461.48;432.92;;;18.90;99.90;;;;;;5072344;28;20115;-60
2022/07/21 03:41:40;;;;;;;497.55;465.65;;;18.90;99.90;;;;;;5071626;28;20056;-61
2022/07/21 03:44:06;;;;;;;330.17;311.17;;;18.90;99.90;;;;;;5083446;28;20130;-60
2022/07/21 03:46:32;;;;;;;404.90;380.70;;;18.90;99.90;;;;;;5093005;28;20505;-60
2022/07/21 03:48:58;;;;;;;398.98;375.45;;;18.90;99.90;;;;;;5096174;28;20036;-61
2022/07/21 03:51:23;;;;;;;413.05;388.73;;;19.00;99.90;;;;;;5096790;28;20059;-61
2022/07/21 03:53:49;;;;;;;382.48;359.33;;;19.00;99.90;;;;;;5096399;28;20052;-60
2022/07/21 03:56:15;;;;;;;415.52;391.05;;;19.00;99.90;;;;;;5081296;28;20041;-61
2022/07/21 03:58:41;;;;;;;444.00;417.05;;;19.00;99.90;;;;;;5076463;28;20059;-61
2022/07/21 04:01:06;;;;;;;420.35;394.70;;;19.00;99.90;;;;;;5081450;28;20090;-61
2022/07/21 04:03:33;;;;;;;456.08;427.20;;;19.00;99.90;;;;;;5095806;28;20492;-61
2022/07/21 04:05:59;;;;;;;331.50;313.13;;;19.00;99.90;;;;;;5096411;28;20052;-61
2022/07/21 04:08:25;;;;;;;430.27;403.38;;;19.00;99.90;;;;;;5088017;28;20094;-61
2022/07/21 04:10:51;;;;;;;386.00;363.65;;;19.00;99.90;;;;;;5075991;28;20098;-60
2022/07/21 04:13:17;;;;;;;420.83;395.83;;;19.00;99.90;;;;;;5076210;28;20044;-60
2022/07/21 04:15:42;;;;;;;380.55;358.23;;;19.00;99.90;;;;;;5057276;28;20056;-60
2022/07/21 04:18:09;;;;;;;337.95;318.40;;;19.00;99.90;;;;;;5075868;28;20052;-60
2022/07/21 04:20:35;;;;;;;410.52;385.58;;;19.00;99.90;;;;;;5096355;28;20048;-60
2022/07/21 04:23:01;;;;;;;408.90;385.15;;;19.00;99.90;;;;;;5095071;28;20390;-60
2022/07/21 04:25:29;;;;;;;376.75;355.73;;;19.00;99.90;;;;;;5096468;28;20047;-60
2022/07/21 04:27:56;;;;;;;366.02;344.70;;;18.90;99.90;;;;;;5095469;28;20635;-60
2022/07/21 04:30:23;;;;;;;404.05;379.60;;;18.90;99.90;;;;;;5094886;28;20044;-60
2022/07/21 04:32:49;;;;;;;399.70;376.48;;;18.90;99.90;;;;;;5087223;28;20045;-60
2022/07/21 04:35:16;;;;;;;386.60;364.80;;;18.90;99.90;;;;;;5075487;28;20436;-60
2022/07/21 04:37:42;;;;;;;381.52;359.08;;;19.00;99.90;;;;;;5074907;28;20072;-60
2022/07/21 04:40:10;;;;;;;364.15;343.48;;;18.90;99.90;;;;;;5075496;28;20144;-60
2022/07/21 04:42:36;;;;;;;353.48;333.08;;;19.00;99.90;;;;;;5074503;28;20135;-60
2022/07/21 04:45:03;;;;;;;331.77;311.35;;;18.90;99.90;;;;;;5075733;28;20109;-60
2022/07/21 04:47:28;;;;;;;394.17;369.80;;;18.90;99.90;;;;;;5094691;28;20043;-60
2022/07/21 04:49:54;;;;;;;354.05;333.02;;;18.80;99.90;;;;;;5094136;28;20044;-61
2022/07/21 04:52:20;;;;;;;361.52;339.77;;;18.70;99.90;;;;;;5093685;28;20115;-61
2022/07/21 04:54:46;;;;;;;456.45;427.77;;;18.70;99.90;;;;;;5093645;28;20473;-61
2022/07/21 04:57:12;;;;;;;500.20;467.65;;;18.70;99.90;;;;;;5094192;28;20112;-60
2022/07/21 04:59:38;;;;;;;433.55;406.05;;;18.60;99.90;;;;;;5093324;28;20112;-60
2022/07/21 05:02:05;;;;;;;476.90;448.15;;;18.50;99.90;;;;;;5076087;28;20051;-60
2022/07/21 05:04:31;;;;;;;435.92;409.15;;;18.50;99.90;;;;;;5093775;28;20052;-60
2022/07/21 05:06:57;;;;;;;501.42;469.48;;;18.40;99.90;;;;;;5075288;28;20047;-60
2022/07/21 05:09:23;;;;;;;424.55;398.70;;;18.40;99.90;;;;;;5078628;28;20048;-61
2022/07/21 05:11:49;;;;;;;581.08;541.35;;;18.40;99.90;;;;;;5077650;28;20036;-60
2022/07/21 05:14:15;;;;;;;605.38;560.38;;;18.40;99.90;;;;;;5074737;28;20109;-60
2022/07/21 05:16:42;;;;;;;644.45;601.70;;;18.40;99.90;;;;;;5074055;28;20041;-61
2022/07/21 05:19:07;;;;;;;602.20;561.95;;;18.40;99.90;;;;;;5073189;28;20053;-60
2022/07/21 05:21:33;;;;;;;522.88;489.20;;;18.40;99.90;;;;;;5085437;28;20043;-61
2022/07/21 05:23:59;;;;;;;591.30;549.72;;;18.40;99.90;;;;;;5094080;28;20109;-60
2022/07/21 05:26:25;;;;;;;590.65;552.08;;;18.40;99.90;;;;;;5093139;28;20052;-60
2022/07/21 05:28:50;;;;;;;571.92;535.33;;;18.40;99.90;;;;;;5093798;28;20466;-60
2022/07/21 05:31:16;;;;;;;461.10;432.05;;;18.40;99.90;;;;;;5092917;28;20048;-61
2022/07/21 05:33:42;;;;;;;524.17;490.73;;;18.50;99.90;;;;;;5076732;28;20053;-60
2022/07/21 05:36:08;;;;;;;430.05;404.27;;;18.50;99.90;;;;;;5073329;28;20044;-60
2022/07/21 05:38:34;;;;;;;445.70;417.52;;;18.60;99.90;;;;;;5061942;28;20056;-61
2022/07/21 05:40:59;;;;;;;435.70;409.30;;;18.60;99.90;;;;;;5055665;28;1061500;-61
2022/07/21 05:43:26;;;;;;;453.92;425.02;;;18.70;99.90;;;;;;5094302;28;20127;-61
2022/07/21 05:45:52;;;;;;;466.00;436.20;;;18.80;99.90;;;;;;5094402;28;20245;-61
2022/07/21 05:48:18;;;;;;;445.50;417.88;;;18.90;99.90;;;;;;5079040;28;20044;-61
2022/07/21 05:50:44;;;;;;;436.60;408.75;;;18.90;99.90;;;;;;5073914;28;20056;-61
2022/07/21 05:53:09;;;;;;;627.65;580.78;;;19.00;99.90;;;;;;5074381;28;20090;-61
2022/07/21 05:55:35;;;;;;;611.80;569.63;;;19.00;99.90;;;;;;5074170;28;20090;-61
2022/07/21 05:58:01;;;;;;;620.05;576.08;;;19.00;99.90;;;;;;5094200;28;20452;-60
2022/07/21 06:00:27;;;;;;;557.17;518.38;;;18.90;99.90;;;;;;5094355;28;20486;-61
2022/07/21 06:02:52;;;;;;;482.85;452.25;;;19.00;99.90;;;;;;5093711;28;20511;-61
2022/07/21 06:05:18;;;;;;;406.65;380.95;;;19.10;99.90;;;;;;5085290;28;20032;-61
2022/07/21 06:07:44;;;;;;;432.60;406.02;;;19.20;99.90;;;;;;5074073;28;20086;-61
2022/07/21 06:10:10;;;;;;;459.08;429.52;;;19.20;99.90;;;;;;5072369;28;20052;-61
2022/07/21 06:12:36;;;;;;;422.05;397.48;;;19.10;99.90;;;;;;5073644;28;20448;-61
2022/07/21 06:15:02;;;;;;;379.70;357.60;;;19.10;99.90;;;;;;5072601;28;20056;-60
2022/07/21 06:17:31;;;;;;;465.13;437.33;;;19.10;99.90;;;;;;5073717;28;20048;-61
2022/07/21 06:19:58;;;;;;;414.60;390.33;;;19.10;99.90;;;;;;5073882;28;20106;-60
2022/07/21 06:22:24;;;;;;;530.63;496.80;;;19.20;99.90;;;;;;5072796;28;20447;-60
2022/07/21 06:24:50;;;;;;;484.70;454.30;;;19.10;99.90;;;;;;5073555;28;20556;-60
2022/07/21 06:27:15;;;;;;;419.13;393.02;;;19.10;99.90;;;;;;5073521;28;20036;-61
2022/07/21 06:29:41;;;;;;;397.40;373.85;;;19.20;99.90;;;;;;5072242;28;20063;-60
2022/07/21 06:32:07;;;;;;;436.73;411.30;;;19.30;99.90;;;;;;5071691;28;20088;-60
2022/07/21 06:34:33;;;;;;;393.65;371.33;;;19.50;99.90;;;;;;5072535;28;20115;-60
2022/07/21 06:36:59;;;;;;;418.35;393.05;;;19.70;99.90;;;;;;5071900;28;20037;-61
2022/07/21 06:39:24;;;;;;;400.73;377.75;;;19.90;99.90;;;;;;5073408;28;20474;-60
2022/07/21 06:41:50;;;;;;;350.58;330.35;;;19.90;99.90;;;;;;5090815;28;20051;-61
2022/07/21 06:44:16;;;;;;;380.40;357.88;;;20.00;99.90;;;;;;5092240;28;20040;-60
2022/07/21 06:46:42;;;;;;;332.48;314.35;;;20.20;99.90;;;;;;5093522;28;20044;-60
2022/07/21 06:49:08;;;;;;;271.00;256.50;;;20.40;99.90;;;;;;5088594;28;20052;-61
2022/07/21 06:51:34;;;;;;;232.75;220.75;;;20.50;99.90;;;;;;5092253;28;20040;-61
2022/07/21 06:53:59;;;;;;;214.18;203.07;;;20.80;99.90;;;;;;5093454;28;20498;-60
2022/07/21 06:56:25;;;;;;;218.50;206.90;;;20.90;99.90;;;;;;5075031;28;20079;-60
2022/07/21 06:58:51;;;;;;;205.88;195.23;;;21.10;99.90;;;;;;5091744;28;20058;-60
2022/07/21 07:01:18;;;;;;;241.90;230.07;;;21.20;99.90;;;;;;5093339;28;20494;-60
2022/07/21 07:03:44;;;;;;;219.60;208.73;;;21.30;99.90;;;;;;5093324;28;20044;-61
2022/07/21 07:06:12;;;;;;;354.77;336.13;;;21.20;99.90;;;;;;5092280;28;20082;-61
2022/07/21 07:08:38;;;;;;;263.00;249.68;;;21.10;99.90;;;;;;5083073;28;20072;-60
2022/07/21 07:11:04;;;;;;;243.38;230.85;;;21.00;99.90;;;;;;5055096;28;20114;-61
2022/07/21 07:13:30;;;;;;;293.13;277.90;;;21.10;99.90;;;;;;5071760;28;20123;-60
2022/07/21 07:15:56;;;;;;;282.02;267.90;;;21.10;99.90;;;;;;5072605;28;20116;-60
2022/07/21 07:18:23;;;;;;;280.38;266.05;;;21.10;99.90;;;;;;5072267;28;20048;-60
2022/07/21 07:20:50;;;;;;;374.98;355.00;;;21.00;99.90;;;;;;5072406;28;20231;-60
2022/07/21 07:23:16;;;;;;;298.40;282.95;;;20.90;99.90;;;;;;5072811;28;20044;-60
2022/07/21 07:25:42;;;;;;;344.25;326.05;;;20.80;99.90;;;;;;5086190;28;20040;-60
2022/07/21 07:28:08;;;;;;;356.13;336.42;;;20.60;99.90;;;;;;5092417;28;20131;-61
2022/07/21 07:30:35;;;;;;;253.93;240.57;;;20.50;99.90;;;;;;5092862;28;20090;-61
2022/07/21 07:33:00;;;;;;;299.20;283.02;;;20.30;99.90;;;;;;5083638;28;20051;-60
2022/07/21 07:35:26;;;;;;;288.58;273.15;;;20.30;99.90;;;;;;5087763;28;20123;-61
2022/07/21 07:37:52;;;;;;;261.80;248.02;;;20.30;99.90;;;;;;5072765;28;20048;-60
2022/07/21 07:40:21;;;;;;;238.18;225.32;;;20.30;99.90;;;;;;5071762;28;20048;-61
2022/07/21 07:42:47;;;;;;;245.80;232.48;;;20.20;99.90;;;;;;5062971;28;20397;-61
2022/07/21 07:45:13;;;;;;;267.00;253.00;;;20.20;99.90;;;;;;5092739;28;20406;-60
2022/07/21 07:47:39;;;;;;;212.30;200.32;;;20.00;99.90;;;;;;5073851;28;20123;-61
2022/07/21 07:50:08;;;;;;;262.98;248.52;;;20.00;99.90;;;;;;5074237;28;20055;-61
2022/07/21 07:52:34;;;;;;;332.50;313.80;;;20.00;99.90;;;;;;5057565;28;20036;-60
2022/07/21 07:55:03;;;;;;;291.30;275.00;;;20.00;99.90;;;;;;5051917;28;20045;-60
2022/07/21 07:57:29;;;;;;;331.73;313.58;;;19.90;99.90;;;;;;5052167;28;20052;-60
2022/07/21 07:59:55;;;;;;;322.40;304.20;;;19.80;99.90;;;;;;5062303;28;20052;-60
2022/07/21 08:02:21;;;;;;;269.05;254.25;;;19.70;99.90;;;;;;5091977;28;20485;-60
2022/07/21 08:04:47;;;;;;;317.50;298.33;;;19.60;99.90;;;;;;5087424;28;20053;-60
2022/07/21 08:07:12;;;;;;;282.15;266.92;;;19.50;99.90;;;;;;5061560;28;20040;-60
2022/07/21 08:09:39;;;;;;;338.25;319.02;;;19.50;99.90;;;;;;5080538;28;20083;-60
2022/07/21 08:12:05;;;;;;;259.60;244.73;;;19.50;99.90;;;;;;5090784;28;20040;-60
2022/07/21 08:14:31;;;;;;;342.77;323.15;;;19.50;99.90;;;;;;5071463;28;20506;-60
2022/07/21 08:16:58;;;;;;;321.17;303.00;;;19.60;99.90;;;;;;5072377;28;20064;-61
2022/07/21 08:19:25;;;;;;;320.67;302.90;;;19.60;99.90;;;;;;5089239;28;20056;-61
2022/07/21 08:21:51;;;;;;;372.58;351.05;;;19.60;99.90;;;;;;5053133;28;20052;-61
2022/07/21 08:24:16;;;;;;;285.85;270.77;;;19.70;99.90;;;;;;5072228;28;20052;-61
2022/07/21 08:26:44;;;;;;;290.92;275.02;;;19.70;99.90;;;;;;5077894;28;20132;-60
2022/07/21 08:29:10;;;;;;;373.60;351.45;;;19.80;99.90;;;;;;5091652;28;20139;-60
2022/07/21 08:31:36;;;;;;;283.55;268.30;;;19.80;99.90;;;;;;5092375;28;20123;-60
2022/07/21 08:34:02;;;;;;;266.38;251.15;;;19.80;99.90;;;;;;5071597;28;20128;-61
2022/07/21 08:36:27;;;;;;;320.60;303.27;;;19.80;99.90;;;;;;5069208;28;20139;-61
2022/07/21 08:38:53;;;;;;;299.73;283.63;;;19.80;99.90;;;;;;5075450;28;20044;-60
2022/07/21 08:41:19;;;;;;;304.65;287.00;;;19.90;99.90;;;;;;5075208;28;20045;-61
2022/07/21 08:43:47;;;;;;;324.40;306.85;;;20.00;99.90;;;;;;5074876;28;20036;-60
2022/07/21 08:46:14;;;;;;;267.50;253.95;;;20.20;99.90;;;;;;5088396;28;20115;-60
2022/07/21 08:48:41;;;;;;;275.08;261.10;;;20.30;99.90;;;;;;5095449;28;20086;-60
2022/07/21 08:51:08;;;;;;;422.02;399.33;;;20.60;99.90;;;;;;5094707;28;20485;-60
2022/07/21 08:53:33;;;;;;;363.80;344.80;;;20.70;99.90;;;;;;5084970;28;20440;-60
2022/07/21 08:55:59;;;;;;;548.63;515.72;;;21.00;99.90;;;;;;5074955;28;20040;-60
2022/07/21 08:58:25;;;;;;;484.98;455.35;;;21.20;99.90;;;;;;5074602;28;20537;-60
2022/07/21 09:00:51;;;;;;;335.83;317.67;;;21.40;99.90;;;;;;5075135;28;20395;-60
2022/07/21 09:03:20;;;;;;;376.20;355.40;;;21.50;99.90;;;;;;5074388;28;20071;-61
2022/07/21 09:06:02;;;;;;;324.00;307.60;;;21.50;99.90;;;;;;5074118;28;20049;-61
2022/07/21 09:08:33;;;;;;;437.85;413.23;;;21.50;99.90;;;;;;5062874;28;20068;-61
2022/07/21 09:11:16;;;;;;;300.55;285.98;;;21.40;99.90;;;;;;5081064;28;20052;-60
2022/07/21 09:13:44;;;;;;;391.17;369.15;;;21.50;99.90;;;;;;5080935;28;20040;-60
2022/07/21 09:16:10;;;;;;;462.83;435.50;;;21.70;99.90;;;;;;5075050;28;20044;-60
2022/07/21 09:18:49;;;;;;;408.33;387.48;;;21.90;99.90;;;;;;5073656;28;20048;-61
2022/07/21 09:21:16;;;;;;;522.58;491.98;;;22.10;99.90;;;;;;5093718;28;20051;-61
2022/07/21 09:23:42;;;;;;;455.77;431.50;;;22.40;99.90;;;;;;5095308;28;20047;-60
2022/07/21 09:26:07;;;;;;;464.10;438.95;;;22.60;99.90;;;;;;5094141;28;20051;-61
2022/07/21 09:28:33;;;;;;;440.98;417.50;;;22.60;99.90;;;;;;5076132;28;20109;-61
2022/07/21 09:31:01;;;;;;;522.50;492.77;;;22.30;99.90;;;;;;5094688;28;20497;-60
2022/07/21 09:33:32;;;;;;;455.20;431.38;;;22.40;99.90;;;;;;5079732;28;20478;-61
2022/07/21 09:36:03;;;;;;;307.65;292.23;;;22.40;99.90;;;;;;5074491;28;20529;-60
2022/07/21 09:38:30;;;;;;;340.13;323.23;;;22.10;99.90;;;;;;5089639;28;20486;-61
2022/07/21 09:41:05;;;;;;;506.90;478.27;;;22.00;99.90;;;;;;5093440;28;20052;-61
2022/07/21 09:43:33;;;;;;;573.28;537.83;;;21.90;99.90;;;;;;5094227;28;20044;-60
2022/07/21 09:46:03;;;;;;;389.33;369.35;;;21.70;99.90;;;;;;5080194;28;20044;-61
2022/07/21 09:48:37;;;;;;;562.95;527.80;;;21.60;99.90;;;;;;5073919;28;20174;-60
2022/07/21 09:51:21;;;;;;;367.08;348.60;;;21.50;99.90;;;;;;5073533;28;20106;-61
2022/07/21 09:53:48;;;;;;;650.35;606.88;;;21.50;99.90;;;;;;5072450;28;20084;-61
2022/07/21 09:56:17;;;;;;;628.33;588.08;;;21.50;99.90;;;;;;5089617;28;20051;-60
2022/07/21 09:58:46;;;;;;;386.17;364.77;;;21.60;99.90;;;;;;5094402;28;20131;-60
2022/07/21 10:01:11;;;;;;;442.85;419.38;;;21.60;99.90;;;;;;5093692;28;20044;-61
2022/07/21 10:03:38;;;;;;;395.48;374.55;;;21.50;99.90;;;;;;5093146;28;20051;-61
2022/07/21 10:06:04;;;;;;;456.33;430.85;;;21.50;99.90;;;;;;5073447;28;20501;-61
2022/07/21 10:08:33;;;;;;;486.40;458.58;;;21.50;99.90;;;;;;5072611;28;20051;-61
2022/07/21 10:10:58;;;;;;;561.75;524.17;;;21.70;99.90;;;;;;5072641;28;20449;-61
2022/07/21 10:13:26;;;;;;;521.70;490.52;;;21.90;99.90;;;;;;5084656;28;20198;-61
2022/07/21 10:15:53;;;;;;;489.23;462.30;;;22.00;99.90;;;;;;5073829;28;20055;-61
2022/07/21 10:18:22;;;;;;;470.98;443.73;;;22.00;99.90;;;;;;5072078;28;20032;-61
2022/07/21 10:20:55;;;;;;;611.50;571.30;;;21.90;99.90;;;;;;5072419;28;20052;-61
2022/07/21 10:23:31;;;;;;;480.95;453.20;;;21.90;99.90;;;;;;5069753;28;20478;-60
2022/07/21 10:25:57;;;;;;;441.77;418.23;;;21.70;99.90;;;;;;5071216;28;20493;-60
2022/07/21 10:28:24;;;;;;;363.08;344.42;;;21.50;99.90;;;;;;5071606;28;20056;-61
2022/07/21 10:30:54;;;;;;;599.50;562.33;;;21.40;99.90;;;;;;5072056;28;20044;-60
2022/07/21 10:33:41;;;;;;;530.63;499.35;;;21.30;99.90;;;;;;5069719;28;20494;-61
2022/07/21 10:36:07;;;;;;;536.90;502.70;;;21.30;99.90;;;;;;5052637;28;20059;-61
2022/07/21 10:38:34;;;;;;;479.23;452.75;;;21.20;99.90;;;;;;5058523;28;20041;-60
2022/07/21 10:41:03;;;;;;;610.30;570.55;;;21.10;99.90;;;;;;5074281;28;20103;-61
2022/07/21 10:43:29;;;;;;;491.33;461.75;;;21.10;99.90;;;;;;5071801;28;20044;-60
2022/07/21 10:45:56;;;;;;;423.25;399.98;;;21.10;99.90;;;;;;5065412;28;20109;-60
2022/07/21 10:48:40;;;;;;;365.27;345.10;;;21.20;99.90;;;;;;5084785;28;20036;-60
2022/07/21 10:51:09;;;;;;;345.15;325.75;;;21.20;99.90;;;;;;5054247;28;20515;-60
2022/07/21 10:53:35;;;;;;;439.95;415.23;;;21.20;99.90;;;;;;5073045;28;20049;-60
2022/07/21 10:56:02;;;;;;;451.50;426.27;;;21.20;99.90;;;;;;5071878;28;20116;-60
2022/07/21 10:58:31;;;;;;;435.15;409.83;;;21.10;99.90;;;;;;5069504;28;20041;-61
2022/07/21 11:00:59;;;;;;;405.00;382.20;;;21.10;99.90;;;;;;5072499;28;20055;-60
2022/07/21 11:03:27;;;;;;;420.10;396.55;;;21.10;99.90;;;;;;5071400;28;20094;-61
2022/07/21 11:06:05;;;;;;;358.45;340.20;;;21.10;99.90;;;;;;5073030;28;20094;-61
2022/07/21 11:08:34;;;;;;;526.47;494.77;;;21.10;99.90;;;;;;5054092;28;20048;-61
2022/07/21 11:11:10;;;;;;;419.92;396.90;;;21.10;99.90;;;;;;5070919;28;20045;-61
2022/07/21 11:14:10;;;;;;;508.98;478.65;;;21.00;99.90;;;;;;5072617;28;20569;-61
2022/07/21 11:16:41;;;;;;;355.02;336.08;;;21.00;99.90;;;;;;5092598;28;20048;-61
2022/07/21 11:19:37;;;;;;;351.67;333.05;;;21.00;99.90;;;;;;5092405;28;20105;-61
2022/07/21 11:22:06;;;;;;;396.42;374.33;;;21.10;99.90;;;;;;5092879;28;20055;-61
2022/07/21 11:24:33;;;;;;;376.30;356.38;;;21.10;99.90;;;;;;5075363;28;20462;-61
2022/07/21 11:27:00;;;;;;;492.45;462.95;;;21.10;99.90;;;;;;5072860;28;20053;-61
2022/07/21 11:29:28;;;;;;;500.25;469.70;;;21.20;99.90;;;;;;5072466;28;20563;-61
2022/07/21 11:31:54;;;;;;;447.88;422.35;;;21.10;99.90;;;;;;5071052;28;20062;-61
2022/07/21 11:34:20;;;;;;;592.55;553.03;;;21.10;99.90;;;;;;5072780;28;20044;-60
2022/07/21 11:36:46;;;;;;;398.30;377.50;;;21.10;99.90;;;;;;5072878;28;20071;-60
2022/07/21 11:39:15;;;;;;;665.38;621.95;;;21.20;99.90;;;;;;5071748;28;20394;-60
2022/07/21 11:41:42;;;;;;;523.08;491.50;;;21.20;99.90;;;;;;5071920;28;20573;-61
2022/07/21 11:44:10;;;;;;;446.77;421.90;;;21.20;99.90;;;;;;5072792;28;20041;-61
2022/07/21 11:46:51;;;;;;;509.58;476.88;;;21.20;99.90;;;;;;5087151;28;20493;-61
2022/07/21 11:49:18;;;;;;;523.15;489.83;;;21.30;99.90;;;;;;5092726;28;20048;-61
2022/07/21 11:51:55;;;;;;;490.83;460.95;;;21.30;99.90;;;;;;5072233;28;20040;-60
2022/07/21 11:54:25;;;;;;;427.88;403.13;;;21.40;99.90;;;;;;5071345;28;20044;-60
2022/07/21 11:56:52;;;;;;;390.60;368.10;;;21.40;99.90;;;;;;5072031;28;20052;-60
2022/07/21 11:59:19;;;;;;;405.85;381.90;;;21.40;99.90;;;;;;5073110;28;20033;-60
2022/07/21 12:01:49;;;;;;;401.83;378.77;;;21.40;99.90;;;;;;5070732;28;20542;-60
2022/07/21 12:04:26;;;;;;;441.48;415.60;;;21.30;99.90;;;;;;5072485;28;20540;-60
2022/07/21 12:06:52;;;;;;;401.55;377.77;;;21.30;99.90;;;;;;5071510;28;20051;-60
2022/07/21 12:09:19;;;;;;;450.40;421.95;;;21.20;99.90;;;;;;5078731;28;20044;-60
2022/07/21 12:11:45;;;;;;;414.05;389.30;;;21.10;99.90;;;;;;5076185;28;20071;-60